Time;durP1;ratioP1;P1;durP2;ratioP2;P2;SDS_P1;SDS_P2;PMS_P1;PMS_P2;Temp;Humidity;BMP_temperature;BMP_pressure;BME280_temperature;BME280_humidity;BME280_pressure;Samples;Min_cycle;Max_cycle;Signal;HPM_P1;HPM_P2
2023/06/30 00:01:48;;;;;;;5.28;2.50;;;;;;;;;;5073008;28;20207;-44
2023/06/30 00:04:30;;;;;;;3.67;2.13;;;;;;;;;;5072971;28;20204;-45
2023/06/30 00:06:57;;;;;;;5.55;2.10;;;;;;;;;;5073100;28;20207;-45
2023/06/30 00:09:25;;;;;;;7.15;2.25;;;;;;;;;;5073181;28;20586;-45
2023/06/30 00:11:54;;;;;;;4.50;1.95;;;;;;;;;;5073332;28;20199;-45
2023/06/30 00:14:21;;;;;;;13.68;2.17;;;;;;;;;;5073055;28;20253;-44
2023/06/30 00:16:49;;;;;;;4.90;2.65;;;;;;;;;;5073253;28;20207;-45
2023/06/30 00:19:17;;;;;;;3.78;2.10;;;;;;;;;;5073010;28;20692;-45
2023/06/30 00:21:45;;;;;;;3.45;2.00;;;;;;;;;;5073076;28;20204;-44
2023/06/30 00:24:13;;;;;;;4.18;2.40;;;;;;;;;;5072847;28;20237;-46
2023/06/30 00:26:40;;;;;;;3.08;2.45;;;;;;;;;;5073332;28;20559;-45
2023/06/30 00:29:08;;;;;;;6.00;2.00;;;;;;;;;;5107645;28;20227;-44
2023/06/30 00:31:36;;;;;;;14.40;2.38;;;;;;;;;;5076532;28;20200;-45
2023/06/30 00:34:03;;;;;;;10.73;2.13;;;;;;;;;;5076428;28;20211;-46
2023/06/30 00:36:31;;;;;;;10.65;2.58;;;;;;;;;;5108973;28;20214;-46
2023/06/30 00:38:59;;;;;;;10.38;2.13;;;;;;;;;;5076314;28;20687;-44
2023/06/30 00:41:26;;;;;;;2.35;1.88;;;;;;;;;;5075377;28;20199;-44
2023/06/30 00:43:53;;;;;;;8.57;2.38;;;;;;;;;;5076517;28;20200;-45
2023/06/30 00:46:21;;;;;;;6.68;1.98;;;;;;;;;;5076323;28;20273;-45
2023/06/30 00:48:48;;;;;;;6.07;2.40;;;;;;;;;;5076117;28;20223;-44
2023/06/30 00:51:15;;;;;;;8.70;2.67;;;;;;;;;;5058706;28;20252;-44
2023/06/30 00:53:43;;;;;;;4.00;1.95;;;;;;;;;;5075237;28;20226;-44
2023/06/30 00:56:11;;;;;;;18.30;3.20;;;;;;;;;;5075172;28;20697;-44
2023/06/30 00:58:38;;;;;;;5.95;2.50;;;;;;;;;;5108908;28;20290;-44
2023/06/30 01:01:32;;;;;;;10.27;2.45;;;;;;;;;;5076001;28;20572;-44
2023/06/30 01:04:12;;;;;;;8.32;2.60;;;;;;;;;;5075961;28;20192;-44
2023/06/30 01:06:51;;;;;;;9.98;2.60;;;;;;;;;;5074783;28;20199;-45
2023/06/30 01:09:22;;;;;;;10.52;2.63;;;;;;;;;;5074663;28;20687;-44
2023/06/30 01:11:50;;;;;;;7.82;2.85;;;;;;;;;;5074913;28;20187;-45
2023/06/30 01:14:18;;;;;;;10.82;3.13;;;;;;;;;;5074724;28;20207;-44
2023/06/30 01:16:46;;;;;;;4.15;2.50;;;;;;;;;;5075559;28;20203;-45
2023/06/30 01:19:38;;;;;;;6.22;2.42;;;;;;;;;;5074415;28;20208;-45
2023/06/30 01:22:34;;;;;;;11.70;2.70;;;;;;;;;;5074542;28;20573;-46
2023/06/30 01:25:04;;;;;;;6.80;2.47;;;;;;;;;;5108398;28;20199;-44
2023/06/30 01:27:31;;;;;;;7.40;2.25;;;;;;;;;;5074510;28;20252;-44
2023/06/30 01:29:59;;;;;;;6.70;2.22;;;;;;;;;;5074123;28;20262;-44
2023/06/30 01:32:27;;;;;;;4.95;2.42;;;;;;;;;;5057764;28;20199;-45
2023/06/30 01:34:55;;;;;;;4.78;2.78;;;;;;;;;;5074140;28;20204;-45
2023/06/30 01:37:22;;;;;;;10.70;2.45;;;;;;;;;;5075339;28;20203;-44
2023/06/30 01:39:50;;;;;;;10.00;2.67;;;;;;;;;;5107002;28;20582;-44
2023/06/30 01:42:18;;;;;;;11.27;2.80;;;;;;;;;;5073866;28;20760;-44
2023/06/30 01:44:46;;;;;;;6.90;2.33;;;;;;;;;;5073750;28;20199;-44
2023/06/30 01:47:13;;;;;;;5.82;2.17;;;;;;;;;;5073613;28;20664;-45
2023/06/30 01:49:42;;;;;;;6.60;2.65;;;;;;;;;;5073778;28;20231;-45
2023/06/30 01:52:09;;;;;;;4.32;2.17;;;;;;;;;;5073489;28;20211;-45
2023/06/30 01:54:36;;;;;;;4.47;2.22;;;;;;;;;;5074836;28;20200;-45
2023/06/30 01:57:03;;;;;;;12.38;2.72;;;;;;;;;;5074754;28;20249;-46
2023/06/30 01:59:31;;;;;;;9.35;2.55;;;;;;;;;;5107204;28;20717;-44
2023/06/30 02:01:58;;;;;;;5.57;2.55;;;;;;;;;;5107260;28;20203;-47
2023/06/30 02:04:26;;;;;;;5.65;2.38;;;;;;;;;;5074535;28;20664;-45
2023/06/30 02:06:55;;;;;;;4.65;2.30;;;;;;;;;;5073480;28;20207;-45
2023/06/30 02:09:22;;;;;;;6.70;2.55;;;;;;;;;;5073058;28;20245;-45
2023/06/30 02:12:06;;;;;;;7.50;2.45;;;;;;;;;;5073111;28;20675;-44
2023/06/30 02:14:33;;;;;;;8.13;2.58;;;;;;;;;;5073412;28;20203;-46
2023/06/30 02:17:00;;;;;;;6.18;2.28;;;;;;;;;;5106736;28;20203;-45
2023/06/30 02:19:27;;;;;;;4.43;2.60;;;;;;;;;;5077293;28;20470;-45
2023/06/30 02:21:54;;;;;;;3.72;2.60;;;;;;;;;;5093060;28;20251;-45
2023/06/30 02:24:21;;;;;;;6.43;2.33;;;;;;;;;;5092340;28;20326;-45
2023/06/30 02:26:49;;;;;;;3.60;2.33;;;;;;;;;;5092321;28;20611;-46
2023/06/30 02:29:16;;;;;;;7.20;2.72;;;;;;;;;;5091066;28;20222;-46
2023/06/30 02:31:43;;;;;;;4.85;2.40;;;;;;;;;;5092268;28;20207;-45
2023/06/30 02:34:10;;;;;;;8.35;2.55;;;;;;;;;;5092531;28;20544;-46
2023/06/30 02:36:38;;;;;;;3.35;2.38;;;;;;;;;;5092489;28;20206;-45
2023/06/30 02:39:05;;;;;;;7.65;2.42;;;;;;;;;;5092685;28;20203;-45
2023/06/30 02:41:32;;;;;;;3.80;2.22;;;;;;;;;;5092511;28;20203;-44
2023/06/30 02:43:59;;;;;;;12.13;2.70;;;;;;;;;;5093758;28;20199;-44
2023/06/30 02:46:26;;;;;;;4.63;2.22;;;;;;;;;;5094232;28;20570;-44
2023/06/30 02:48:54;;;;;;;2.42;1.90;;;;;;;;;;5092914;28;20222;-45
2023/06/30 02:51:21;;;;;;;4.50;2.58;;;;;;;;;;5092486;28;20550;-44
2023/06/30 02:53:48;;;;;;;8.23;2.45;;;;;;;;;;5093763;28;20565;-44
2023/06/30 02:56:17;;;;;;;3.78;2.50;;;;;;;;;;5092832;28;20202;-45
2023/06/30 02:58:44;;;;;;;6.15;2.70;;;;;;;;;;5093150;28;20202;-44
2023/06/30 03:01:12;;;;;;;7.65;3.00;;;;;;;;;;5093909;28;20199;-45
2023/06/30 03:03:42;;;;;;;5.80;2.78;;;;;;;;;;5076619;28;20206;-45
2023/06/30 03:06:10;;;;;;;3.47;2.47;;;;;;;;;;5092862;28;20202;-45
2023/06/30 03:08:39;;;;;;;5.35;2.83;;;;;;;;;;5092848;28;20222;-44
2023/06/30 03:11:06;;;;;;;8.38;3.15;;;;;;;;;;5092580;28;20682;-44
2023/06/30 03:13:34;;;;;;;5.07;2.60;;;;;;;;;;5092739;28;20264;-44
2023/06/30 03:16:01;;;;;;;3.47;2.70;;;;;;;;;;5092648;28;20224;-45
2023/06/30 03:18:28;;;;;;;3.88;2.60;;;;;;;;;;5093756;28;20202;-44
2023/06/30 03:20:56;;;;;;;8.38;3.03;;;;;;;;;;5092506;28;20230;-45
2023/06/30 03:23:22;;;;;;;4.72;3.15;;;;;;;;;;5092206;28;20252;-44
2023/06/30 03:25:50;;;;;;;5.05;2.53;;;;;;;;;;5092745;28;20213;-46
2023/06/30 03:28:17;;;;;;;4.50;2.80;;;;;;;;;;5093490;28;20205;-44
2023/06/30 03:30:44;;;;;;;10.15;2.72;;;;;;;;;;5089792;28;20209;-45
2023/06/30 03:33:12;;;;;;;7.30;3.08;;;;;;;;;;5086311;28;20198;-44
2023/06/30 03:35:39;;;;;;;6.75;3.28;;;;;;;;;;5090154;28;20222;-44
2023/06/30 03:38:06;;;;;;;11.52;3.20;;;;;;;;;;5103528;28;20292;-47
2023/06/30 03:40:33;;;;;;;4.40;3.00;;;;;;;;;;5087818;28;20207;-48
2023/06/30 03:43:04;;;;;;;8.45;3.67;;;;;;;;;;5087454;28;20659;-49
2023/06/30 03:45:32;;;;;;;6.80;3.50;;;;;;;;;;5088653;28;20640;-45
2023/06/30 03:47:59;;;;;;;7.82;3.03;;;;;;;;;;5084776;28;20203;-45
2023/06/30 03:50:26;;;;;;;5.28;3.50;;;;;;;;;;5085745;28;20222;-44
2023/06/30 03:52:53;;;;;;;5.13;3.25;;;;;;;;;;5090408;28;20198;-44
2023/06/30 03:55:21;;;;;;;10.43;3.70;;;;;;;;;;5079555;28;20583;-46
2023/06/30 03:57:47;;;;;;;5.40;3.50;;;;;;;;;;5092096;28;20198;-48
2023/06/30 04:00:15;;;;;;;4.90;3.17;;;;;;;;;;5093219;28;20705;-46
2023/06/30 04:02:44;;;;;;;5.25;3.03;;;;;;;;;;5090865;28;20207;-47
2023/06/30 04:05:12;;;;;;;7.05;2.80;;;;;;;;;;5085338;28;20203;-46
2023/06/30 04:07:39;;;;;;;5.40;2.72;;;;;;;;;;5081509;28;20203;-46
2023/06/30 04:10:07;;;;;;;3.20;2.63;;;;;;;;;;5076878;28;20680;-45
2023/06/30 04:12:34;;;;;;;7.80;2.97;;;;;;;;;;5077212;28;20195;-44
2023/06/30 04:15:01;;;;;;;5.18;3.00;;;;;;;;;;5087584;28;20233;-43
2023/06/30 04:17:28;;;;;;;4.38;3.17;;;;;;;;;;5096081;28;20310;-43
2023/06/30 04:19:58;;;;;;;11.82;2.83;;;;;;;;;;5084948;28;20243;-46
2023/06/30 04:22:25;;;;;;;4.00;3.20;;;;;;;;;;5082513;28;20356;-47
2023/06/30 04:24:52;;;;;;;4.45;3.28;;;;;;;;;;5087702;28;20231;-46
2023/06/30 04:27:19;;;;;;;5.28;3.03;;;;;;;;;;5079471;28;20297;-46
2023/06/30 04:29:46;;;;;;;7.78;3.03;;;;;;;;;;5084613;28;20235;-47
2023/06/30 04:32:13;;;;;;;8.80;3.60;;;;;;;;;;5076089;28;20227;-47
2023/06/30 04:34:41;;;;;;;4.93;3.20;;;;;;;;;;5075721;28;20280;-46
2023/06/30 04:37:08;;;;;;;3.58;2.95;;;;;;;;;;5076144;28;20298;-46
2023/06/30 04:39:36;;;;;;;4.88;3.20;;;;;;;;;;5075702;28;20227;-46
2023/06/30 04:42:03;;;;;;;6.43;3.20;;;;;;;;;;5076025;28;20211;-47
2023/06/30 04:44:31;;;;;;;9.13;3.63;;;;;;;;;;5076303;28;20224;-47
2023/06/30 04:46:58;;;;;;;5.22;3.30;;;;;;;;;;5085859;28;20231;-46
2023/06/30 04:49:25;;;;;;;5.10;3.10;;;;;;;;;;5075478;28;20239;-47
2023/06/30 04:51:52;;;;;;;8.40;5.10;;;;;;;;;;5075517;28;20230;-46
2023/06/30 04:54:21;;;;;;;5.85;3.80;;;;;;;;;;5075307;28;20611;-46
2023/06/30 04:56:48;;;;;;;7.03;2.90;;;;;;;;;;5075024;28;20764;-47
2023/06/30 04:59:15;;;;;;;7.00;3.10;;;;;;;;;;5081247;28;20234;-46
2023/06/30 05:01:42;;;;;;;12.85;3.20;;;;;;;;;;5094211;28;20222;-46
2023/06/30 05:04:10;;;;;;;4.82;3.20;;;;;;;;;;5095572;28;20226;-46
2023/06/30 05:06:37;;;;;;;6.00;3.03;;;;;;;;;;5095353;28;20218;-46
2023/06/30 05:09:04;;;;;;;4.53;2.97;;;;;;;;;;5095423;28;20248;-46
2023/06/30 05:11:31;;;;;;;3.28;2.80;;;;;;;;;;5087474;28;20220;-46
2023/06/30 05:13:58;;;;;;;3.13;2.55;;;;;;;;;;5075100;28;20700;-46
2023/06/30 05:16:26;;;;;;;5.38;3.00;;;;;;;;;;5094702;28;20226;-47
2023/06/30 05:18:53;;;;;;;4.05;2.95;;;;;;;;;;5082019;28;20234;-46
2023/06/30 05:21:20;;;;;;;5.75;2.90;;;;;;;;;;5093851;28;20204;-46
2023/06/30 05:23:47;;;;;;;2.67;2.42;;;;;;;;;;5084055;28;21600;-46
2023/06/30 05:26:14;;;;;;;4.40;3.05;;;;;;;;;;5092760;28;20191;-47
2023/06/30 05:28:42;;;;;;;5.60;3.17;;;;;;;;;;5095235;28;20244;-46
2023/06/30 05:31:22;;;;;;;5.50;3.30;;;;;;;;;;5093794;28;20194;-48
2023/06/30 05:33:49;;;;;;;4.07;2.67;;;;;;;;;;5095284;28;20195;-49
2023/06/30 05:36:16;;;;;;;4.40;2.65;;;;;;;;;;5092496;28;20286;-48
2023/06/30 05:38:43;;;;;;;3.28;2.55;;;;;;;;;;5095020;28;20203;-47
2023/06/30 05:41:11;;;;;;;7.72;3.08;;;;;;;;;;5095544;28;20206;-47
2023/06/30 05:43:40;;;;;;;5.47;3.00;;;;;;;;;;5095125;28;20225;-48
2023/06/30 05:46:07;;;;;;;5.50;2.67;;;;;;;;;;5092879;28;20198;-48
2023/06/30 05:48:34;;;;;;;3.78;2.60;;;;;;;;;;5094778;28;20240;-46
2023/06/30 05:51:01;;;;;;;2.72;2.40;;;;;;;;;;5094581;28;20215;-47
2023/06/30 05:53:29;;;;;;;4.43;2.75;;;;;;;;;;5094881;28;20199;-46
2023/06/30 05:55:56;;;;;;;4.70;2.50;;;;;;;;;;5094685;28;20553;-46
2023/06/30 05:58:26;;;;;;;3.40;2.05;;;;;;;;;;5094565;28;20187;-47
2023/06/30 06:00:53;;;;;;;3.13;2.35;;;;;;;;;;5094684;28;20285;-47
2023/06/30 06:03:21;;;;;;;7.88;2.50;;;;;;;;;;5094435;28;20256;-47
2023/06/30 06:05:48;;;;;;;3.97;2.60;;;;;;;;;;5094546;28;20249;-46
2023/06/30 06:08:16;;;;;;;4.93;2.83;;;;;;;;;;5094605;28;20191;-47
2023/06/30 06:10:45;;;;;;;4.05;2.85;;;;;;;;;;5094420;28;20280;-47
2023/06/30 06:13:39;;;;;;;3.92;2.45;;;;;;;;;;5094270;28;20667;-48
2023/06/30 06:16:06;;;;;;;2.85;2.42;;;;;;;;;;5091396;28;20206;-47
2023/06/30 06:18:34;;;;;;;8.60;3.25;;;;;;;;;;5094380;28;20236;-46
2023/06/30 06:21:03;;;;;;;2.70;2.05;;;;;;;;;;5093981;28;20203;-49
2023/06/30 06:23:30;;;;;;;3.47;2.08;;;;;;;;;;5094805;28;20287;-49
2023/06/30 06:25:58;;;;;;;3.83;2.20;;;;;;;;;;5085586;28;20711;-51
2023/06/30 06:28:25;;;;;;;2.83;2.10;;;;;;;;;;5094617;28;20212;-50
2023/06/30 06:30:52;;;;;;;3.78;2.38;;;;;;;;;;5094675;28;20231;-50
2023/06/30 06:33:20;;;;;;;4.60;2.53;;;;;;;;;;5094372;28;20199;-52
2023/06/30 06:35:53;;;;;;;2.72;2.25;;;;;;;;;;5094369;28;20591;-49
2023/06/30 06:38:20;;;;;;;4.07;2.25;;;;;;;;;;5093968;28;20202;-48
2023/06/30 06:40:48;;;;;;;4.82;2.30;;;;;;;;;;5093448;28;20272;-49
2023/06/30 06:43:15;;;;;;;5.85;2.45;;;;;;;;;;5094164;28;20199;-50
2023/06/30 06:45:42;;;;;;;7.05;2.58;;;;;;;;;;5094512;28;20224;-49
2023/06/30 06:48:21;;;;;;;4.50;2.20;;;;;;;;;;5094268;28;20209;-49
2023/06/30 06:51:02;;;;;;;4.22;2.20;;;;;;;;;;5094148;28;20234;-49
2023/06/30 06:53:31;;;;;;;2.78;2.00;;;;;;;;;;5093867;28;20662;-49
2023/06/30 06:55:57;;;;;;;3.22;2.20;;;;;;;;;;5094049;28;20191;-48
2023/06/30 06:58:27;;;;;;;2.95;2.20;;;;;;;;;;5093927;28;20206;-49
2023/06/30 07:00:55;;;;;;;2.67;2.10;;;;;;;;;;5093795;28;20673;-47
2023/06/30 07:03:23;;;;;;;2.67;1.92;;;;;;;;;;5093600;28;20199;-49
2023/06/30 07:05:50;;;;;;;3.17;2.35;;;;;;;;;;5093991;28;20203;-50
2023/06/30 07:08:21;;;;;;;3.65;1.88;;;;;;;;;;5093762;28;20211;-47
2023/06/30 07:10:50;;;;;;;7.75;2.00;;;;;;;;;;5094144;28;20203;-48
2023/06/30 07:13:18;;;;;;;2.72;2.20;;;;;;;;;;5093319;28;20202;-49
2023/06/30 07:15:47;;;;;;;3.90;2.28;;;;;;;;;;5092754;28;20191;-49
2023/06/30 07:18:18;;;;;;;3.40;2.22;;;;;;;;;;5092919;28;20202;-50
2023/06/30 07:20:50;;;;;;;4.97;2.40;;;;;;;;;;5093089;28;20241;-51
2023/06/30 07:23:17;;;;;;;3.72;2.03;;;;;;;;;;5091637;28;20223;-49
2023/06/30 07:25:45;;;;;;;3.95;1.75;;;;;;;;;;5091658;28;20191;-47
2023/06/30 07:28:13;;;;;;;1.90;1.45;;;;;;;;;;5089921;28;20217;-50
2023/06/30 07:30:41;;;;;;;3.67;1.75;;;;;;;;;;5083333;28;20265;-48
2023/06/30 07:33:12;;;;;;;3.00;2.03;;;;;;;;;;5091042;28;20234;-49
2023/06/30 07:35:40;;;;;;;2.03;1.83;;;;;;;;;;5087008;28;20273;-48
2023/06/30 07:38:07;;;;;;;3.53;2.08;;;;;;;;;;5080884;28;20265;-47
2023/06/30 07:40:35;;;;;;;2.70;1.58;;;;;;;;;;5078578;28;20229;-47
2023/06/30 07:43:05;;;;;;;3.00;1.88;;;;;;;;;;5079972;28;20223;-47
2023/06/30 07:45:32;;;;;;;6.40;2.10;;;;;;;;;;5091655;28;20238;-48
2023/06/30 07:48:00;;;;;;;2.45;1.88;;;;;;;;;;5093026;28;20222;-46
2023/06/30 07:50:27;;;;;;;2.78;1.45;;;;;;;;;;5092125;28;20272;-46
2023/06/30 07:52:54;;;;;;;2.40;1.95;;;;;;;;;;5092983;28;20219;-46
2023/06/30 07:55:22;;;;;;;2.60;1.60;;;;;;;;;;5092360;28;20780;-46
2023/06/30 07:57:51;;;;;;;2.53;1.80;;;;;;;;;;5092675;28;20714;-47
2023/06/30 08:00:18;;;;;;;2.60;1.90;;;;;;;;;;5091680;28;20223;-48
2023/06/30 08:02:46;;;;;;;5.15;1.60;;;;;;;;;;5091484;28;20214;-49
2023/06/30 08:05:14;;;;;;;2.58;1.75;;;;;;;;;;5085732;28;20225;-48
2023/06/30 08:07:41;;;;;;;3.00;1.77;;;;;;;;;;5089380;28;20222;-51
2023/06/30 08:10:16;;;;;;;6.72;2.10;;;;;;;;;;5089106;28;20222;-51
2023/06/30 08:12:44;;;;;;;3.17;1.83;;;;;;;;;;5092053;28;20230;-50
2023/06/30 08:15:11;;;;;;;3.42;2.08;;;;;;;;;;5084378;28;20223;-51
2023/06/30 08:17:38;;;;;;;2.70;1.80;;;;;;;;;;5071813;28;20269;-49
2023/06/30 08:20:22;;;;;;;2.45;1.70;;;;;;;;;;5089289;28;20697;-48
2023/06/30 08:22:50;;;;;;;4.43;2.45;;;;;;;;;;5091043;28;20227;-48
2023/06/30 08:25:21;;;;;;;3.08;1.80;;;;;;;;;;5091450;28;20236;-49
2023/06/30 08:27:49;;;;;;;2.60;1.70;;;;;;;;;;5092041;28;20198;-48
2023/06/30 08:30:16;;;;;;;2.28;1.70;;;;;;;;;;5090961;28;20221;-48
2023/06/30 08:32:45;;;;;;;2.33;1.63;;;;;;;;;;5092292;28;20198;-49
2023/06/30 08:35:12;;;;;;;2.53;1.70;;;;;;;;;;5092519;28;20229;-52
2023/06/30 08:37:39;;;;;;;4.35;2.00;;;;;;;;;;5092534;28;20232;-48
2023/06/30 08:40:07;;;;;;;2.00;1.60;;;;;;;;;;5092228;28;20196;-48
2023/06/30 08:42:36;;;;;;;4.13;1.98;;;;;;;;;;5091034;28;20206;-48
2023/06/30 08:45:04;;;;;;;5.72;1.77;;;;;;;;;;5092988;28;20244;-49
2023/06/30 08:47:34;;;;;;;8.43;1.75;;;;;;;;;;5092880;28;20286;-49
2023/06/30 08:50:02;;;;;;;3.03;1.92;;;;;;;;;;5093216;28;20194;-49
2023/06/30 08:52:29;;;;;;;3.22;1.60;;;;;;;;;;5095847;28;20191;-48
2023/06/30 08:54:56;;;;;;;1.73;1.50;;;;;;;;;;5095324;28;20730;-47
2023/06/30 08:57:25;;;;;;;1.40;1.30;;;;;;;;;;5095596;28;20186;-48
2023/06/30 08:59:52;;;;;;;3.80;1.85;;;;;;;;;;5095781;28;20191;-47
2023/06/30 09:02:19;;;;;;;2.33;1.73;;;;;;;;;;5095896;28;20252;-48
2023/06/30 09:04:46;;;;;;;5.95;1.60;;;;;;;;;;5095349;28;20197;-48
2023/06/30 09:07:23;;;;;;;1.90;1.30;;;;;;;;;;5095713;28;20207;-49
2023/06/30 09:09:54;;;;;;;3.10;1.85;;;;;;;;;;5094877;28;20543;-47
2023/06/30 09:12:22;;;;;;;2.05;1.30;;;;;;;;;;5095621;28;20567;-48
2023/06/30 09:14:51;;;;;;;7.90;1.92;;;;;;;;;;5094488;28;20193;-47
2023/06/30 09:17:18;;;;;;;2.35;1.58;;;;;;;;;;5094395;28;20207;-50
2023/06/30 09:19:46;;;;;;;2.50;1.42;;;;;;;;;;5095121;28;20191;-49
2023/06/30 09:22:13;;;;;;;2.65;1.50;;;;;;;;;;5095838;28;20210;-49
2023/06/30 09:25:00;;;;;;;2.00;1.48;;;;;;;;;;5095025;28;20183;-48
2023/06/30 09:27:28;;;;;;;3.38;1.77;;;;;;;;;;5095925;28;20255;-50
2023/06/30 09:29:55;;;;;;;10.45;1.90;;;;;;;;;;5095939;28;20195;-49
2023/06/30 09:32:31;;;;;;;2.88;1.75;;;;;;;;;;5095346;28;20234;-50
2023/06/30 09:35:08;;;;;;;2.17;1.42;;;;;;;;;;5095669;28;20240;-50
2023/06/30 09:37:42;;;;;;;2.75;1.50;;;;;;;;;;5093020;28;20182;-50
2023/06/30 09:40:15;;;;;;;2.70;1.60;;;;;;;;;;5092245;28;20190;-48
2023/06/30 09:42:43;;;;;;;2.50;1.58;;;;;;;;;;5094510;28;20253;-49
2023/06/30 09:45:13;;;;;;;2.25;1.55;;;;;;;;;;5093242;28;20217;-51
2023/06/30 09:47:41;;;;;;;3.10;1.60;;;;;;;;;;5093104;28;20685;-54
2023/06/30 09:50:10;;;;;;;2.65;1.60;;;;;;;;;;5093224;28;20578;-51
2023/06/30 09:52:38;;;;;;;2.05;1.48;;;;;;;;;;5092902;28;20191;-52
2023/06/30 09:55:14;;;;;;;2.35;1.33;;;;;;;;;;5093635;28;20242;-49
2023/06/30 09:57:43;;;;;;;2.47;1.48;;;;;;;;;;5093418;28;20190;-49
2023/06/30 10:00:16;;;;;;;3.80;1.38;;;;;;;;;;5094607;28;20191;-49
2023/06/30 10:03:04;;;;;;;2.72;1.35;;;;;;;;;;5093539;28;20640;-49
2023/06/30 10:05:32;;;;;;;2.67;1.50;;;;;;;;;;5092716;28;20191;-48
2023/06/30 10:08:00;;;;;;;2.30;1.33;;;;;;;;;;5093790;28;20199;-51
2023/06/30 10:10:28;;;;;;;1.52;1.33;;;;;;;;;;5094179;28;20187;-49
2023/06/30 10:13:00;;;;;;;3.60;1.60;;;;;;;;;;5093646;28;20206;-49
2023/06/30 10:15:27;;;;;;;2.65;1.65;;;;;;;;;;5094347;28;20194;-50
2023/06/30 10:17:57;;;;;;;2.83;1.73;;;;;;;;;;5093147;28;20199;-50
2023/06/30 10:20:25;;;;;;;2.45;1.63;;;;;;;;;;5093698;28;20564;-49
2023/06/30 10:23:05;;;;;;;1.98;1.38;;;;;;;;;;5093363;28;20222;-51
2023/06/30 10:25:35;;;;;;;2.17;1.42;;;;;;;;;;5094886;28;20605;-49
2023/06/30 10:28:06;;;;;;;1.65;1.42;;;;;;;;;;5094325;28;20655;-50
2023/06/30 10:30:34;;;;;;;4.75;1.80;;;;;;;;;;5094214;28;20659;-50
2023/06/30 10:33:02;;;;;;;1.50;1.10;;;;;;;;;;5094367;28;20222;-48
2023/06/30 10:35:30;;;;;;;2.80;1.45;;;;;;;;;;5094247;28;20223;-48
2023/06/30 10:37:59;;;;;;;1.40;1.20;;;;;;;;;;5094056;28;20206;-48
2023/06/30 10:40:30;;;;;;;4.15;1.75;;;;;;;;;;5094325;28;20289;-47
2023/06/30 10:42:58;;;;;;;3.30;1.67;;;;;;;;;;5094260;28;20183;-46
2023/06/30 10:45:30;;;;;;;3.00;1.38;;;;;;;;;;5093697;28;20609;-46
2023/06/30 10:48:08;;;;;;;1.70;1.40;;;;;;;;;;5093939;28;20202;-49
2023/06/30 10:50:42;;;;;;;2.13;1.60;;;;;;;;;;5092053;28;20221;-49
2023/06/30 10:53:16;;;;;;;6.00;1.48;;;;;;;;;;5090853;28;20696;-46
2023/06/30 10:55:43;;;;;;;2.50;1.80;;;;;;;;;;5093854;28;20189;-49
2023/06/30 10:58:21;;;;;;;1.45;1.30;;;;;;;;;;5091189;28;20667;-47
2023/06/30 11:01:05;;;;;;;1.92;1.60;;;;;;;;;;5093177;28;20277;-48
2023/06/30 11:03:57;;;;;;;2.13;1.30;;;;;;;;;;5091659;28;20735;-46
2023/06/30 11:06:25;;;;;;;1.58;1.40;;;;;;;;;;5093352;28;20278;-48
2023/06/30 11:09:11;;;;;;;1.60;1.17;;;;;;;;;;5093502;28;20205;-47
2023/06/30 11:11:48;;;;;;;1.63;1.20;;;;;;;;;;5092452;28;20606;-46
2023/06/30 11:14:32;;;;;;;1.35;1.25;;;;;;;;;;5090358;28;20194;-47
2023/06/30 11:17:05;;;;;;;3.45;1.35;;;;;;;;;;5084498;28;20660;-47
2023/06/30 11:19:38;;;;;;;2.65;1.60;;;;;;;;;;5091200;28;20281;-46
2023/06/30 11:22:25;;;;;;;1.60;1.40;;;;;;;;;;5087928;28;20222;-46
2023/06/30 11:24:53;;;;;;;2.47;1.58;;;;;;;;;;5092434;28;20234;-47
2023/06/30 11:27:20;;;;;;;4.15;1.55;;;;;;;;;;5090479;28;20218;-46
2023/06/30 11:29:49;;;;;;;2.13;1.27;;;;;;;;;;5092241;28;20714;-46
2023/06/30 11:32:18;;;;;;;1.67;1.17;;;;;;;;;;5091467;28;20254;-46
2023/06/30 11:34:45;;;;;;;1.30;1.13;;;;;;;;;;5091923;28;20219;-49
2023/06/30 11:37:12;;;;;;;3.42;1.42;;;;;;;;;;5091789;28;20317;-48
2023/06/30 11:39:40;;;;;;;3.08;1.30;;;;;;;;;;5092194;28;20219;-46
2023/06/30 11:42:07;;;;;;;3.20;1.40;;;;;;;;;;5090723;28;20233;-46
2023/06/30 11:44:37;;;;;;;1.42;1.30;;;;;;;;;;5091788;28;20713;-47
2023/06/30 11:47:04;;;;;;;2.60;1.20;;;;;;;;;;5091926;28;20218;-47
2023/06/30 11:49:38;;;;;;;3.13;1.20;;;;;;;;;;5090671;28;20229;-48
2023/06/30 11:52:05;;;;;;;2.00;1.30;;;;;;;;;;5113339;28;20310;-49
2023/06/30 11:54:33;;;;;;;2.00;1.48;;;;;;;;;;5091869;28;20721;-48
2023/06/30 11:57:00;;;;;;;1.65;1.27;;;;;;;;;;5091537;28;20265;-47
2023/06/30 11:59:28;;;;;;;1.25;1.13;;;;;;;;;;5089631;28;20249;-46
2023/06/30 12:01:55;;;;;;;2.47;1.42;;;;;;;;;;5092660;28;20301;-46
2023/06/30 12:04:22;;;;;;;6.00;1.27;;;;;;;;;;5092465;28;20227;-47
2023/06/30 12:06:50;;;;;;;3.63;1.30;;;;;;;;;;5087786;28;20218;-46
2023/06/30 12:09:17;;;;;;;1.70;1.38;;;;;;;;;;5091948;28;20222;-49
2023/06/30 12:11:45;;;;;;;1.50;1.30;;;;;;;;;;5091758;28;20232;-47
2023/06/30 12:14:16;;;;;;;2.60;1.52;;;;;;;;;;5091706;28;20261;-48
2023/06/30 12:16:44;;;;;;;2.95;1.50;;;;;;;;;;5091972;28;20215;-47
2023/06/30 12:19:15;;;;;;;1.50;1.15;;;;;;;;;;5091646;28;20710;-50
2023/06/30 12:21:55;;;;;;;1.20;1.10;;;;;;;;;;5091808;28;20246;-47
2023/06/30 12:24:23;;;;;;;3.15;1.25;;;;;;;;;;5090983;28;20248;-48
2023/06/30 12:26:51;;;;;;;3.83;1.63;;;;;;;;;;5095871;28;20238;-53
2023/06/30 12:29:19;;;;;;;1.73;1.27;;;;;;;;;;5090601;28;20218;-47
2023/06/30 12:31:47;;;;;;;2.60;1.40;;;;;;;;;;5095641;28;20779;-50
2023/06/30 12:34:34;;;;;;;3.65;1.25;;;;;;;;;;5094937;28;20703;-47
2023/06/30 12:37:02;;;;;;;2.03;1.60;;;;;;;;;;5093458;28;20686;-46
2023/06/30 12:39:30;;;;;;;1.73;1.30;;;;;;;;;;5095324;28;20219;-48
2023/06/30 12:41:57;;;;;;;5.40;1.60;;;;;;;;;;5092850;28;20715;-47
2023/06/30 12:44:25;;;;;;;1.77;1.38;;;;;;;;;;5095185;28;20218;-48
2023/06/30 12:47:02;;;;;;;2.10;1.25;;;;;;;;;;5095305;28;20222;-47
2023/06/30 12:49:29;;;;;;;1.67;1.30;;;;;;;;;;5094598;28;20219;-48
2023/06/30 12:51:57;;;;;;;1.40;1.30;;;;;;;;;;5092476;28;20257;-51
2023/06/30 12:54:28;;;;;;;2.97;1.50;;;;;;;;;;5095180;28;20271;-47
2023/06/30 12:56:55;;;;;;;1.77;1.38;;;;;;;;;;5095041;28;20215;-46
2023/06/30 12:59:23;;;;;;;2.55;1.45;;;;;;;;;;5094932;28;20430;-51
2023/06/30 13:01:50;;;;;;;2.00;1.60;;;;;;;;;;5094972;28;20556;-47
2023/06/30 13:04:17;;;;;;;3.60;1.20;;;;;;;;;;5091586;28;20224;-46
2023/06/30 13:06:44;;;;;;;1.60;1.30;;;;;;;;;;5095029;28;20266;-47
2023/06/30 13:09:12;;;;;;;3.22;1.40;;;;;;;;;;5094674;28;20234;-51
2023/06/30 13:11:40;;;;;;;6.05;1.30;;;;;;;;;;5092181;28;20233;-51
2023/06/30 13:14:07;;;;;;;1.80;1.20;;;;;;;;;;5091535;28;20554;-53
2023/06/30 13:16:35;;;;;;;5.28;1.40;;;;;;;;;;5094425;28;20210;-46
2023/06/30 13:19:03;;;;;;;2.33;1.30;;;;;;;;;;5093716;28;20222;-47
2023/06/30 13:21:29;;;;;;;2.05;1.50;;;;;;;;;;5094920;28;20225;-47
2023/06/30 13:23:57;;;;;;;2.45;1.30;;;;;;;;;;5094420;28;20226;-49
2023/06/30 13:26:24;;;;;;;2.05;1.20;;;;;;;;;;5094694;28;20305;-46
2023/06/30 13:28:51;;;;;;;2.60;1.35;;;;;;;;;;5094891;28;20214;-45
2023/06/30 13:31:18;;;;;;;3.20;1.35;;;;;;;;;;5095119;27;20238;-49
2023/06/30 13:33:46;;;;;;;2.67;1.38;;;;;;;;;;5092821;28;20222;-47
2023/06/30 13:36:14;;;;;;;2.00;1.40;;;;;;;;;;5091870;28;20233;-50
2023/06/30 13:38:46;;;;;;;2.08;1.38;;;;;;;;;;5093708;28;20210;-46
2023/06/30 13:41:13;;;;;;;3.72;1.33;;;;;;;;;;5093594;28;20218;-46
2023/06/30 13:43:41;;;;;;;2.05;1.40;;;;;;;;;;5092738;28;20222;-47
2023/06/30 13:46:08;;;;;;;2.50;1.50;;;;;;;;;;5086561;28;20211;-46
2023/06/30 13:48:36;;;;;;;1.58;1.45;;;;;;;;;;5078603;28;20218;-46
2023/06/30 13:51:03;;;;;;;1.75;1.30;;;;;;;;;;5094204;28;20317;-46
2023/06/30 13:53:31;;;;;;;2.75;1.38;;;;;;;;;;5091574;28;20226;-47
2023/06/30 13:55:58;;;;;;;1.50;1.10;;;;;;;;;;5094580;28;20223;-46
2023/06/30 13:58:26;;;;;;;1.98;1.30;;;;;;;;;;5094276;28;20308;-49
2023/06/30 14:00:53;;;;;;;3.63;1.55;;;;;;;;;;5093617;28;20230;-46
2023/06/30 14:03:21;;;;;;;2.30;1.25;;;;;;;;;;5094022;28;20222;-48
2023/06/30 14:05:49;;;;;;;8.55;1.50;;;;;;;;;;5092681;28;20230;-47
2023/06/30 14:08:19;;;;;;;1.55;1.20;;;;;;;;;;5092607;28;20226;-48
2023/06/30 14:10:47;;;;;;;2.72;1.52;;;;;;;;;;5092765;28;20643;-46
2023/06/30 14:13:14;;;;;;;9.35;1.73;;;;;;;;;;5092777;28;20229;-46
2023/06/30 14:15:41;;;;;;;2.03;1.25;;;;;;;;;;5074476;28;20220;-47
2023/06/30 14:18:09;;;;;;;3.05;1.80;;;;;;;;;;5090664;28;20244;-49
2023/06/30 14:20:36;;;;;;;6.60;1.85;;;;;;;;;;5092779;28;20623;-49
2023/06/30 14:23:03;;;;;;;2.60;1.48;;;;;;;;;;5092904;28;20226;-48
2023/06/30 14:25:30;;;;;;;6.50;1.33;;;;;;;;;;5093284;28;20245;-48
2023/06/30 14:27:58;;;;;;;3.88;1.48;;;;;;;;;;5081640;28;20227;-46
2023/06/30 14:30:31;;;;;;;2.20;1.58;;;;;;;;;;5073124;28;20231;-47
2023/06/30 14:33:00;;;;;;;2.15;1.35;;;;;;;;;;5073731;28;20692;-48
2023/06/30 14:35:29;;;;;;;2.63;1.58;;;;;;;;;;5073486;28;20333;-47
2023/06/30 14:37:57;;;;;;;2.63;2.00;;;;;;;;;;5073288;28;20231;-47
2023/06/30 14:40:29;;;;;;;4.55;1.48;;;;;;;;;;5073315;28;20731;-47
2023/06/30 14:42:59;;;;;;;1.77;1.30;;;;;;;;;;5073451;28;20875;-47
2023/06/30 14:45:29;;;;;;;3.08;1.30;;;;;;;;;;5072821;28;20276;-49
2023/06/30 14:47:57;;;;;;;2.40;1.30;;;;;;;;;;5073404;28;20227;-47
2023/06/30 14:50:25;;;;;;;6.93;1.50;;;;;;;;;;5073111;28;20748;-49
2023/06/30 14:52:53;;;;;;;2.10;1.27;;;;;;;;;;5073413;28;20235;-47
2023/06/30 14:55:20;;;;;;;21.00;3.10;;;;;;;;;;5078792;28;20706;-48